Time,TemperatureF,DewpointF,PressureIn,WindDirection,WindDirectionDegrees,WindSpeedMPH,WindSpeedGustMPH,Humidity,HourlyPrecipIn,Conditions,Clouds,dailyrainin,SoftwareType,DateUTC
2013-02-26 00:12:00,35.2,17.0,29.93,SE,134,2.0,-999.0,48,-99.99,,,0.00,weatherlink.com 1.10,2013-02-26 05:12:00,
2013-02-26 00:27:00,35.3,17.0,29.94,SSE,158,7.0,-999.0,48,-99.99,,,0.00,weatherlink.com 1.10,2013-02-26 05:27:00,
2013-02-26 00:42:00,35.0,17.0,29.93,SSE,160,20.0,-999.0,48,-99.99,,,0.00,weatherlink.com 1.10,2013-02-26 05:42:00,
2013-02-26 00:57:00,35.0,17.0,29.93,SSE,150,20.0,-999.0,49,-99.99,,,0.00,weatherlink.com 1.10,2013-02-26 05:57:00,
2013-02-26 01:12:00,35.3,17.0,29.93,SSE,152,7.0,-999.0,48,-99.99,,,0.00,weatherlink.com 1.10,2013-02-26 06:12:00,
2013-02-26 01:28:00,35.3,17.0,29.93,SSE,152,6.0,-999.0,48,-99.99,,,0.00,weatherlink.com 1.10,2013-02-26 06:28:00,
2013-02-26 01:43:00,36.0,17.0,29.93,SSE,157,2.0,-999.0,46,-99.99,,,0.00,weatherlink.com 1.10,2013-02-26 06:43:00,
2013-02-26 01:58:00,35.9,17.0,29.93,WSW,256,5.0,-999.0,46,-99.99,,,0.00,weatherlink.com 1.10,2013-02-26 06:58:00,
2013-02-26 02:13:00,36.0,17.0,29.93,South,169,13.0,-999.0,46,-99.99,,,0.00,weatherlink.com 1.10,2013-02-26 07:13:00,
2013-02-26 02:28:00,36.3,17.0,29.92,SE,141,8.0,-999.0,46,-99.99,,,0.00,weatherlink.com 1.10,2013-02-26 07:28:00,
2013-02-26 02:43:00,35.6,17.0,29.90,SSE,147,7.0,-999.0,47,-99.99,,,0.00,weatherlink.com 1.10,2013-02-26 07:43:00,
2013-02-26 02:58:00,35.3,17.0,29.89,ESE,123,3.0,-999.0,48,-99.99,,,0.00,weatherlink.com 1.10,2013-02-26 07:58:00,
2013-02-26 03:13:00,35.2,17.0,29.89,ESE,112,7.0,-999.0,48,-99.99,,,0.00,weatherlink.com 1.10,2013-02-26 08:13:00,
2013-02-26 03:28:00,35.2,17.0,29.88,ESE,119,6.0,-999.0,48,-99.99,,,0.00,weatherlink.com 1.10,2013-02-26 08:28:00,
2013-02-26 03:43:00,35.3,17.0,29.86,East,79,3.0,-999.0,47,-99.99,,,0.00,weatherlink.com 1.10,2013-02-26 08:43:00,
2013-02-26 03:58:00,35.3,17.0,29.86,East,80,6.0,-999.0,47,-99.99,,,0.00,weatherlink.com 1.10,2013-02-26 08:58:00,
2013-02-26 04:13:00,35.2,17.0,29.85,South,179,16.0,-999.0,48,-99.99,,,0.00,weatherlink.com 1.10,2013-02-26 09:13:00,
2013-02-26 04:28:00,35.3,17.0,29.83,ESE,107,5.0,-999.0,47,-99.99,,,0.00,weatherlink.com 1.10,2013-02-26 09:28:00,
2013-02-26 04:43:00,35.3,17.0,29.82,SE,141,3.0,-999.0,48,-99.99,,,0.00,weatherlink.com 1.10,2013-02-26 09:43:00,
2013-02-26 04:58:00,35.3,17.0,29.82,SE,144,11.0,-999.0,48,-99.99,,,0.00,weatherlink.com 1.10,2013-02-26 09:58:00,
2013-02-26 05:13:00,35.3,17.0,29.83,SE,127,8.0,-999.0,48,-99.99,,,0.00,weatherlink.com 1.10,2013-02-26 10:13:00,
2013-02-26 05:28:00,35.5,17.0,29.84,East,100,10.0,-999.0,48,-99.99,,,0.00,weatherlink.com 1.10,2013-02-26 10:28:00,
2013-02-26 05:43:00,35.6,18.0,29.82,South,174,9.0,-999.0,48,-99.99,,,0.00,weatherlink.com 1.10,2013-02-26 10:43:00,
2013-02-26 05:58:00,35.6,18.0,29.83,ENE,76,10.0,-999.0,48,-99.99,,,0.00,weatherlink.com 1.10,2013-02-26 10:58:00,
2013-02-26 06:13:00,35.8,17.0,29.82,SE,127,20.0,-999.0,47,-99.99,,,0.00,weatherlink.com 1.10,2013-02-26 11:13:00,
2013-02-26 06:28:00,35.8,17.0,29.82,ESE,104,8.0,-999.0,47,-99.99,,,0.00,weatherlink.com 1.10,2013-02-26 11:28:00,
2013-02-26 06:43:00,35.8,17.0,29.81,ENE,76,10.0,-999.0,47,-99.99,,,0.00,weatherlink.com 1.10,2013-02-26 11:43:00,
2013-02-26 06:58:00,35.9,17.0,29.79,East,96,3.0,-999.0,47,-99.99,,,0.00,weatherlink.com 1.10,2013-02-26 11:58:00,
2013-02-26 07:13:00,35.9,18.0,29.79,SE,141,3.0,-999.0,48,-99.99,,,0.00,weatherlink.com 1.10,2013-02-26 12:13:00,
2013-02-26 07:28:00,36.0,17.0,29.78,East,88,13.0,-999.0,47,-99.99,,,0.00,weatherlink.com 1.10,2013-02-26 12:28:00,
2013-02-26 07:43:00,36.2,18.0,29.78,South,191,6.0,-999.0,47,-99.99,,,0.00,weatherlink.com 1.10,2013-02-26 12:43:00,
2013-02-26 07:58:00,36.5,18.0,29.77,SE,131,14.0,-999.0,47,-99.99,,,0.00,weatherlink.com 1.10,2013-02-26 12:58:00,
2013-02-26 08:13:00,36.8,18.0,29.77,East,95,7.0,-999.0,47,-99.99,,,0.00,weatherlink.com 1.10,2013-02-26 13:13:00,
2013-02-26 08:28:00,36.9,18.0,29.77,ENE,72,6.0,-999.0,47,-99.99,,,0.00,weatherlink.com 1.10,2013-02-26 13:28:00,
2013-02-26 08:43:00,37.2,18.0,29.77,ENE,75,14.0,-999.0,47,-99.99,,,0.00,weatherlink.com 1.10,2013-02-26 13:43:00,
2013-02-26 08:58:00,37.0,19.0,29.76,East,100,6.0,-999.0,48,-99.99,,,0.00,weatherlink.com 1.10,2013-02-26 13:58:00,
2013-02-26 09:13:00,37.0,19.0,29.76,ESE,102,8.0,-999.0,48,-99.99,,,0.00,weatherlink.com 1.10,2013-02-26 14:13:00,
2013-02-26 09:28:00,36.9,19.0,29.75,East,89,11.0,-999.0,48,-99.99,,,0.00,weatherlink.com 1.10,2013-02-26 14:28:00,
2013-02-26 09:43:00,36.9,19.0,29.75,East,90,13.0,-999.0,49,-99.99,,,0.00,weatherlink.com 1.10,2013-02-26 14:43:00,
2013-02-26 09:58:00,36.6,19.0,29.73,SE,130,8.0,-999.0,49,-99.99,,,0.00,weatherlink.com 1.10,2013-02-26 14:58:00,
2013-02-26 10:13:00,36.5,19.0,29.72,ESE,102,7.0,-999.0,49,-99.99,,,0.00,weatherlink.com 1.10,2013-02-26 15:13:00,
2013-02-26 10:28:00,36.5,19.0,29.73,SE,126,16.0,-999.0,50,-99.99,,,0.00,weatherlink.com 1.10,2013-02-26 15:28:00,
2013-02-26 10:43:00,36.6,19.0,29.75,South,189,5.0,-999.0,49,-99.99,,,0.00,weatherlink.com 1.10,2013-02-26 15:43:00,
2013-02-26 10:58:00,36.2,20.0,29.76,NE,42,7.0,-999.0,53,-99.99,,,0.00,weatherlink.com 1.10,2013-02-26 15:58:00,
2013-02-26 11:13:00,35.5,23.0,29.77,NNE,30,8.0,-999.0,61,-99.99,,,0.00,weatherlink.com 1.10,2013-02-26 16:13:00,
2013-02-26 11:28:00,34.3,25.0,29.75,SE,124,6.0,-999.0,70,-99.99,,,0.02,weatherlink.com 1.10,2013-02-26 16:28:00,
2013-02-26 11:43:00,34.1,25.0,29.73,NE,51,11.0,-999.0,70,-99.99,,,0.03,weatherlink.com 1.10,2013-02-26 16:43:00,
2013-02-26 11:59:00,34.1,26.0,29.72,SSE,147,14.0,-999.0,71,-99.99,,,0.03,weatherlink.com 1.10,2013-02-26 16:59:00,
2013-02-26 12:14:00,34.4,26.0,29.72,SE,127,8.0,-999.0,71,-99.99,,,0.04,weatherlink.com 1.10,2013-02-26 17:14:00,
2013-02-26 12:29:00,34.4,27.0,29.70,ESE,117,11.0,-999.0,73,-99.99,,,0.05,weatherlink.com 1.10,2013-02-26 17:29:00,
2013-02-26 12:44:00,34.4,28.0,29.69,ENE,59,13.0,-999.0,77,-99.99,,,0.07,weatherlink.com 1.10,2013-02-26 17:44:00,
2013-02-26 12:59:00,34.3,29.0,29.67,SSE,155,7.0,-999.0,80,-99.99,,,0.12,weatherlink.com 1.10,2013-02-26 17:59:00,
2013-02-26 13:14:00,35.0,29.0,29.64,NE,35,12.0,-999.0,80,-99.99,,,0.16,weatherlink.com 1.10,2013-02-26 18:14:00,
2013-02-26 13:29:00,35.5,30.0,29.61,NE,40,16.0,-999.0,80,-99.99,,,0.18,weatherlink.com 1.10,2013-02-26 18:29:00,
2013-02-26 13:44:00,35.9,30.0,29.57,East,82,9.0,-999.0,80,-99.99,,,0.20,weatherlink.com 1.10,2013-02-26 18:44:00,
2013-02-26 13:59:00,35.8,31.0,29.59,ENE,75,11.0,-999.0,81,-99.99,,,0.23,weatherlink.com 1.10,2013-02-26 18:59:00,
2013-02-26 14:14:00,35.5,30.0,29.58,SE,144,13.0,-999.0,81,-99.99,,,0.30,weatherlink.com 1.10,2013-02-26 19:14:00,
2013-02-26 14:29:00,35.2,30.0,29.57,SE,130,13.0,-999.0,82,-99.99,,,0.37,weatherlink.com 1.10,2013-02-26 19:29:00,
2013-02-26 14:44:00,35.3,30.0,29.56,SE,138,14.0,-999.0,82,-99.99,,,0.39,weatherlink.com 1.10,2013-02-26 19:44:00,
2013-02-26 14:59:00,36.2,31.0,29.52,SSE,161,3.0,-999.0,80,-99.99,,,0.41,weatherlink.com 1.10,2013-02-26 19:59:00,
2013-02-26 15:14:00,37.5,31.0,29.50,ESE,116,8.0,-999.0,76,-99.99,,,0.41,weatherlink.com 1.10,2013-02-26 20:14:00,
2013-02-26 15:29:00,37.8,30.0,29.54,East,88,1.0,-999.0,74,-99.99,,,0.41,weatherlink.com 1.10,2013-02-26 20:29:00,
2013-02-26 15:44:00,37.9,30.0,29.52,ESE,119,12.0,-999.0,74,-99.99,,,0.41,weatherlink.com 1.10,2013-02-26 20:44:00,
2013-02-26 15:59:00,38.3,31.0,29.51,NE,35,11.0,-999.0,74,-99.99,,,0.41,weatherlink.com 1.10,2013-02-26 20:59:00,
2013-02-26 16:14:00,38.2,31.0,29.47,SSE,168,7.0,-999.0,75,-99.99,,,0.41,weatherlink.com 1.10,2013-02-26 21:14:00,
2013-02-26 16:29:00,38.0,31.0,29.50,SE,140,14.0,-999.0,75,-99.99,,,0.41,weatherlink.com 1.10,2013-02-26 21:29:00,
2013-02-26 16:44:00,38.2,31.0,29.49,ENE,65,3.0,-999.0,75,-99.99,,,0.42,weatherlink.com 1.10,2013-02-26 21:44:00,
2013-02-26 17:00:00,38.2,31.0,29.48,ESE,102,10.0,-999.0,75,-99.99,,,0.42,weatherlink.com 1.10,2013-02-26 22:00:00,
2013-02-26 17:15:00,38.2,31.0,29.44,SSE,161,8.0,-999.0,74,-99.99,,,0.42,weatherlink.com 1.10,2013-02-26 22:15:00,
2013-02-26 17:30:00,37.8,31.0,29.46,East,79,9.0,-999.0,76,-99.99,,,0.43,weatherlink.com 1.10,2013-02-26 22:30:00,
2013-02-26 17:45:00,37.8,31.0,29.53,East,89,7.0,-999.0,76,-99.99,,,0.43,weatherlink.com 1.10,2013-02-26 22:45:00,
2013-02-26 18:00:00,37.0,31.0,29.50,West,272,5.0,-999.0,80,-99.99,,,0.49,weatherlink.com 1.10,2013-02-26 23:00:00,
2013-02-26 18:15:00,37.3,32.0,29.58,SW,215,2.0,-999.0,80,-99.99,,,0.54,weatherlink.com 1.10,2013-02-26 23:15:00,
2013-02-26 18:30:00,37.3,32.0,29.58,NE,40,2.0,-999.0,81,-99.99,,,0.57,weatherlink.com 1.10,2013-02-26 23:30:00,
2013-02-26 18:45:00,37.2,32.0,29.58,SE,145,0.0,-999.0,82,-99.99,,,0.59,weatherlink.com 1.10,2013-02-26 23:45:00,
2013-02-26 19:00:00,37.8,33.0,29.53,SE,124,2.0,-999.0,82,-99.99,,,0.60,weatherlink.com 1.10,2013-02-27 00:00:00,
2013-02-26 19:15:00,38.3,32.0,29.53,ESE,112,0.0,-999.0,79,-99.99,,,0.60,weatherlink.com 1.10,2013-02-27 00:15:00,
2013-02-26 19:30:00,38.5,33.0,29.50,SE,141,7.0,-999.0,79,-99.99,,,0.60,weatherlink.com 1.10,2013-02-27 00:30:00,
2013-02-26 19:45:00,39.1,31.0,29.50,ESE,110,0.0,-999.0,74,-99.99,,,0.60,weatherlink.com 1.10,2013-02-27 00:45:00,
2013-02-26 20:00:00,39.1,31.0,29.47,ENE,62,13.0,-999.0,74,-99.99,,,0.61,weatherlink.com 1.10,2013-02-27 01:00:00,
2013-02-26 20:15:00,39.3,31.0,29.48,ESE,114,3.0,-999.0,72,-99.99,,,0.61,weatherlink.com 1.10,2013-02-27 01:15:00,
2013-02-26 20:30:00,39.5,32.0,29.48,South,171,10.0,-999.0,73,-99.99,,,0.61,weatherlink.com 1.10,2013-02-27 01:30:00,
2013-02-26 20:45:00,39.8,31.0,29.47,NE,56,5.0,-999.0,72,-99.99,,,0.61,weatherlink.com 1.10,2013-02-27 01:45:00,
2013-02-26 21:00:00,39.9,32.0,29.46,ESE,119,8.0,-999.0,72,-99.99,,,0.61,weatherlink.com 1.10,2013-02-27 02:00:00,
2013-02-26 21:15:00,40.1,32.0,29.45,East,79,11.0,-999.0,72,-99.99,,,0.61,weatherlink.com 1.10,2013-02-27 02:15:00,
2013-02-26 21:31:00,40.1,32.0,29.44,SSE,151,8.0,-999.0,73,-99.99,,,0.61,weatherlink.com 1.10,2013-02-27 02:31:00,
2013-02-26 21:45:00,39.8,32.0,29.44,ESE,110,6.0,-999.0,74,-99.99,,,0.61,weatherlink.com 1.10,2013-02-27 02:45:00,
2013-02-26 22:00:00,39.5,32.0,29.45,ESE,102,7.0,-999.0,75,-99.99,,,0.61,weatherlink.com 1.10,2013-02-27 03:00:00,
2013-02-26 22:15:00,39.5,33.0,29.45,ENE,71,5.0,-999.0,76,-99.99,,,0.61,weatherlink.com 1.10,2013-02-27 03:15:00,
2013-02-26 22:30:00,39.6,33.0,29.44,SE,134,5.0,-999.0,76,-99.99,,,0.61,weatherlink.com 1.10,2013-02-27 03:30:00,
2013-02-26 22:45:00,39.6,33.0,29.45,East,97,8.0,-999.0,76,-99.99,,,0.61,weatherlink.com 1.10,2013-02-27 03:45:00,
2013-02-26 23:00:00,39.6,33.0,29.45,SE,133,13.0,-999.0,76,-99.99,,,0.61,weatherlink.com 1.10,2013-02-27 04:00:00,
2013-02-26 23:15:00,39.3,33.0,29.46,SE,131,14.0,-999.0,79,-99.99,,,0.61,weatherlink.com 1.10,2013-02-27 04:15:00,
2013-02-26 23:30:00,39.2,33.0,29.46,SSE,155,7.0,-999.0,79,-99.99,,,0.61,weatherlink.com 1.10,2013-02-27 04:30:00,
2013-02-26 23:45:00,39.2,33.0,29.46,SE,141,9.0,-999.0,78,-99.99,,,0.61,weatherlink.com 1.10,2013-02-27 04:45:00,